createdAt,value
2019-02-25T00:00:13.960Z,17.77
2019-02-25T00:05:17.606Z,17.00
2019-02-25T00:10:21.272Z,17.42
2019-02-25T00:15:25.168Z,16.07
2019-02-25T00:20:28.824Z,16.02
2019-02-25T00:25:32.492Z,16.65
2019-02-25T00:30:36.190Z,17.25
2019-02-25T00:35:39.906Z,14.70
2019-02-25T00:40:43.571Z,15.03
2019-02-25T00:45:47.867Z,13.95
2019-02-25T00:50:51.513Z,13.83
2019-02-25T00:55:55.168Z,14.18
2019-02-25T01:00:58.860Z,14.28
2019-02-25T01:06:02.537Z,13.78
2019-02-25T01:11:06.227Z,14.95
2019-02-25T01:16:09.907Z,15.30
2019-02-25T01:21:13.602Z,14.00
2019-02-25T01:26:17.253Z,13.75
2019-02-25T01:31:20.949Z,13.90
2019-02-25T01:36:24.746Z,13.03
2019-02-25T01:41:28.469Z,13.00
2019-02-25T01:46:32.151Z,13.35
2019-02-25T01:51:35.840Z,12.80
2019-02-25T01:56:39.533Z,12.60
2019-02-25T02:01:43.192Z,13.15
2019-02-25T02:06:46.876Z,12.43
2019-02-25T02:11:50.603Z,12.28
2019-02-25T02:16:54.489Z,11.30
2019-02-25T02:21:58.182Z,12.03
2019-02-25T02:27:01.922Z,12.28
2019-02-25T02:32:05.559Z,11.12
2019-02-25T02:37:09.214Z,11.48
2019-02-25T02:42:20.455Z,11.97
2019-02-25T02:47:32.973Z,11.40
2019-02-25T02:52:36.646Z,12.33
2019-02-25T02:57:40.359Z,11.60
2019-02-25T03:02:44.066Z,10.95
2019-02-25T03:07:47.796Z,10.85
2019-02-25T03:12:51.494Z,12.63
2019-02-25T03:17:55.174Z,11.70
2019-02-25T03:22:58.833Z,11.30
2019-02-25T03:28:02.505Z,10.43
2019-02-25T03:33:06.246Z,10.65
2019-02-25T03:38:09.980Z,10.80
2019-02-25T03:43:13.629Z,10.82
2019-02-25T03:48:17.341Z,10.60
2019-02-25T03:53:21.029Z,10.28
2019-02-25T03:58:24.694Z,10.90
2019-02-25T04:03:28.349Z,9.73
2019-02-25T04:08:32.037Z,10.35
2019-02-25T04:13:35.690Z,9.88
2019-02-25T04:18:39.384Z,9.58
2019-02-25T04:23:43.057Z,10.38
2019-02-25T04:28:46.792Z,10.05
2019-02-25T04:33:50.495Z,9.75
2019-02-25T04:38:54.165Z,9.48
2019-02-25T04:43:57.848Z,10.40
2019-02-25T04:49:01.540Z,10.78
2019-02-25T04:54:05.220Z,9.95
2019-02-25T04:59:08.910Z,9.03
2019-02-25T05:04:12.566Z,9.63
2019-02-25T05:09:16.238Z,10.23
2019-02-25T05:14:19.953Z,10.35
2019-02-25T05:19:23.960Z,10.85
2019-02-25T05:24:27.687Z,11.45
2019-02-25T05:29:31.364Z,13.08
2019-02-25T05:34:35.017Z,13.60
2019-02-25T05:39:38.710Z,14.70
2019-02-25T05:44:42.384Z,14.83
2019-02-25T05:49:46.073Z,14.07
2019-02-25T05:54:49.754Z,26.90
2019-02-25T05:59:53.467Z,16.60
2019-02-25T06:04:57.113Z,13.05
2019-02-25T06:10:00.765Z,13.08
2019-02-25T06:15:06.661Z,11.90
2019-02-25T06:20:13.030Z,11.28
2019-02-25T06:25:17.210Z,11.30
2019-02-25T06:30:21.898Z,12.18
2019-02-25T06:35:25.578Z,12.70
2019-02-25T06:40:29.292Z,13.25
2019-02-25T06:45:35.170Z,15.13
2019-02-25T06:50:38.850Z,14.68
2019-02-25T06:55:42.574Z,14.03
2019-02-25T07:00:46.261Z,12.73
2019-02-25T07:05:54.561Z,13.20
2019-02-25T07:11:05.914Z,12.78
2019-02-25T07:16:27.428Z,12.85
2019-02-25T07:21:50.754Z,11.63
2019-02-25T07:26:56.024Z,13.05
2019-02-25T07:32:04.278Z,13.15
2019-02-25T07:37:12.466Z,13.15
2019-02-25T07:42:23.932Z,14.63
2019-02-25T07:47:29.152Z,15.08
2019-02-25T07:52:52.723Z,13.93
2019-02-25T07:58:06.993Z,14.87
2019-02-25T08:03:27.181Z,15.15
2019-02-25T08:08:32.443Z,15.23
2019-02-25T08:13:37.677Z,15.03
2019-02-25T08:19:01.093Z,14.90
2019-02-25T08:24:06.340Z,15.65
2019-02-25T08:29:29.807Z,15.35
2019-02-25T08:34:51.287Z,15.80
2019-02-25T08:40:11.697Z,15.78
2019-02-25T08:45:25.975Z,16.20
2019-02-25T08:50:29.665Z,16.87
2019-02-25T08:55:33.387Z,17.73
2019-02-25T09:00:37.070Z,18.27
2019-02-25T09:05:40.758Z,18.45
2019-02-25T09:10:44.440Z,19.85
2019-02-25T09:15:48.106Z,20.10
2019-02-25T09:20:51.804Z,21.33
2019-02-25T09:25:55.489Z,20.23
2019-02-25T09:30:59.204Z,20.55
2019-02-25T09:36:02.905Z,21.62
2019-02-25T09:41:06.565Z,20.27
2019-02-25T09:46:10.226Z,20.92
2019-02-25T09:51:13.881Z,21.90
2019-02-25T09:56:17.568Z,20.40
2019-02-25T10:01:21.266Z,22.40
2019-02-25T10:06:24.955Z,23.25
2019-02-25T10:11:28.646Z,21.52
2019-02-25T10:16:32.339Z,22.77
2019-02-25T10:21:36.024Z,21.23
2019-02-25T10:26:39.696Z,19.12
2019-02-25T10:31:43.802Z,21.07
2019-02-25T10:36:48.158Z,22.30
2019-02-25T10:41:54.024Z,21.62
2019-02-25T10:46:58.339Z,29.35
2019-02-25T10:52:02.001Z,21.35
2019-02-25T10:57:06.017Z,30.15
2019-02-25T11:02:11.639Z,25.17
2019-02-25T11:07:15.051Z,21.62
2019-02-25T11:12:18.861Z,18.92
2019-02-25T11:17:24.320Z,20.20
2019-02-25T11:22:27.857Z,20.75
2019-02-25T11:27:33.155Z,21.02
2019-02-25T11:32:37.150Z,20.27
2019-02-25T11:37:40.863Z,19.98
2019-02-25T11:42:44.716Z,19.67
2019-02-25T11:47:48.365Z,19.32
2019-02-25T11:52:52.102Z,19.15
2019-02-25T11:57:55.758Z,20.37
2019-02-25T12:02:59.424Z,20.40
2019-02-25T12:08:03.119Z,20.68
2019-02-25T12:13:06.769Z,20.10
2019-02-25T12:18:10.467Z,19.62
2019-02-25T12:23:14.129Z,19.80
2019-02-25T12:28:17.794Z,18.92
2019-02-25T12:33:21.497Z,19.37
2019-02-25T12:38:25.152Z,19.00
2019-02-25T12:43:28.813Z,18.12
2019-02-25T12:48:32.473Z,17.57
2019-02-25T12:53:37.767Z,18.10
2019-02-25T12:58:41.662Z,18.27
2019-02-25T13:03:45.317Z,18.25
2019-02-25T13:08:48.993Z,18.77
2019-02-25T13:13:52.666Z,18.62
2019-02-25T13:18:56.321Z,18.15
2019-02-25T13:24:01.902Z,18.25
2019-02-25T13:29:05.386Z,17.35
2019-02-25T13:34:09.132Z,18.15
2019-02-25T13:39:12.837Z,17.50
2019-02-25T13:44:16.635Z,17.25
2019-02-25T13:49:20.329Z,17.20
2019-02-25T13:54:24.107Z,17.77
2019-02-25T13:59:28.132Z,16.93
2019-02-25T14:04:31.802Z,17.57
2019-02-25T14:09:35.461Z,16.90
2019-02-25T14:14:39.160Z,17.48
2019-02-25T14:19:42.847Z,17.57
2019-02-25T14:24:46.852Z,16.57
2019-02-25T14:29:50.910Z,16.77
2019-02-25T14:34:54.603Z,15.25
2019-02-25T14:40:01.376Z,22.17
2019-02-25T14:45:04.606Z,29.70
2019-02-25T14:50:19.719Z,16.20
2019-02-25T14:55:23.615Z,15.40
2019-02-25T15:00:28.989Z,15.88
2019-02-25T15:05:33.643Z,14.78
2019-02-25T15:10:38.559Z,14.63
2019-02-25T15:15:44.126Z,15.05
2019-02-25T15:20:49.035Z,14.63
2019-02-25T15:25:52.762Z,15.23
2019-02-25T15:30:59.737Z,14.53
2019-02-25T15:36:01.753Z,14.73
2019-02-25T15:41:07.440Z,15.40
2019-02-25T15:46:12.486Z,14.68
2019-02-25T15:51:18.375Z,13.93
2019-02-25T15:56:22.299Z,14.93
2019-02-25T16:01:25.990Z,15.60
2019-02-25T16:06:30.998Z,16.40
2019-02-25T16:11:36.646Z,16.67
2019-02-25T16:16:40.409Z,15.88
2019-02-25T16:21:44.202Z,14.87
2019-02-25T16:26:48.751Z,17.30
2019-02-25T16:31:53.507Z,16.37
2019-02-25T16:36:58.772Z,17.00
2019-02-25T16:42:03.342Z,16.57
2019-02-25T16:47:07.908Z,15.93
2019-02-25T16:52:13.920Z,15.00
2019-02-25T16:57:18.516Z,15.48
2019-02-25T17:02:23.021Z,16.30
2019-02-25T17:07:26.709Z,15.83
2019-02-25T17:12:31.647Z,16.20
2019-02-25T17:17:35.506Z,16.05
2019-02-25T17:22:39.195Z,17.60
2019-02-25T17:27:42.906Z,17.40
2019-02-25T17:32:48.404Z,16.02
2019-02-25T17:37:53.424Z,17.15
2019-02-25T17:42:57.684Z,17.30
2019-02-25T17:48:03.559Z,17.67
2019-02-25T17:53:07.435Z,17.82
2019-02-25T17:58:13.009Z,17.15
2019-02-25T18:03:17.409Z,16.93
2019-02-25T18:08:21.939Z,18.32
2019-02-25T18:13:28.112Z,17.87
2019-02-25T18:18:32.393Z,17.50
2019-02-25T18:23:36.323Z,17.87
2019-02-25T18:28:41.641Z,17.42
2019-02-25T18:33:48.078Z,18.90
2019-02-25T18:38:52.781Z,18.35
2019-02-25T18:43:56.969Z,18.92
2019-02-25T18:49:00.685Z,19.77
2019-02-25T18:54:04.525Z,22.00
2019-02-25T18:59:13.034Z,23.27
2019-02-25T19:04:15.236Z,23.85
2019-02-25T19:09:21.188Z,22.70
2019-02-25T19:14:26.506Z,21.75
2019-02-25T19:19:31.340Z,21.02
2019-02-25T19:24:39.694Z,22.77
2019-02-25T19:29:41.173Z,23.95
2019-02-25T19:34:44.905Z,23.57
2019-02-25T19:39:50.421Z,26.00
2019-02-25T19:44:53.914Z,26.60
2019-02-25T19:49:59.651Z,29.37
2019-02-25T19:55:06.191Z,28.85
2019-02-25T20:00:24.990Z,31.05
2019-02-25T20:05:27.885Z,30.55
2019-02-25T20:10:31.544Z,27.35
2019-02-25T20:15:37.549Z,28.15
2019-02-25T20:20:41.696Z,28.27
2019-02-25T20:25:48.489Z,27.40
2019-02-25T20:30:52.028Z,26.62
2019-02-25T20:35:58.906Z,26.00
2019-02-25T20:41:02.594Z,26.02
2019-02-25T20:46:08.592Z,26.33
2019-02-25T20:51:12.013Z,27.15
2019-02-25T20:56:15.918Z,25.43
2019-02-25T21:01:20.959Z,25.37
2019-02-25T21:06:24.750Z,25.60
2019-02-25T21:11:28.480Z,26.77
2019-02-25T21:16:33.101Z,26.90
2019-02-25T21:21:38.982Z,25.88
2019-02-25T21:26:42.830Z,25.37
2019-02-25T21:31:47.559Z,26.65
2019-02-25T21:36:53.936Z,25.68
2019-02-25T21:41:57.173Z,26.45
2019-02-25T21:47:03.208Z,24.70
2019-02-25T21:52:06.698Z,25.37
2019-02-25T21:57:11.527Z,25.37
2019-02-25T22:02:15.886Z,25.77
2019-02-25T22:07:24.161Z,27.52
2019-02-25T22:12:26.902Z,27.62
2019-02-25T22:17:30.782Z,27.80
2019-02-25T22:22:35.348Z,26.85
2019-02-25T22:27:41.256Z,28.07
2019-02-25T22:32:45.101Z,30.40
2019-02-25T22:37:52.060Z,28.38
2019-02-25T22:42:54.968Z,28.90
2019-02-25T22:47:59.423Z,27.62
2019-02-25T22:53:04.257Z,28.77
2019-02-25T22:58:10.444Z,30.37
2019-02-25T23:03:15.493Z,32.53
2019-02-25T23:08:21.101Z,30.60
2019-02-25T23:13:25.063Z,29.32
2019-02-25T23:18:30.015Z,29.10
2019-02-25T23:23:35.624Z,38.53
2019-02-25T23:28:39.075Z,44.03
2019-02-25T23:33:44.304Z,40.52
2019-02-25T23:38:48.077Z,35.95
2019-02-25T23:43:52.024Z,38.48
2019-02-25T23:48:55.745Z,33.78
2019-02-25T23:53:59.424Z,34.55
2019-02-25T23:59:03.085Z,32.45
